createdAt,value
2018-07-14T00:00:44.250Z,80.30
2018-07-14T00:05:47.305Z,80.50
2018-07-14T00:10:50.412Z,80.80
2018-07-14T00:15:53.456Z,81.00
2018-07-14T00:20:56.508Z,81.50
2018-07-14T00:26:00.428Z,81.70
2018-07-14T00:31:03.482Z,82.30
2018-07-14T00:36:06.525Z,82.60
2018-07-14T00:41:09.593Z,82.60
2018-07-14T00:46:12.653Z,82.70
2018-07-14T00:51:15.725Z,82.70
2018-07-14T00:56:18.781Z,82.70
2018-07-14T01:01:21.849Z,82.70
2018-07-14T01:06:24.902Z,82.80
2018-07-14T01:11:27.985Z,82.90
2018-07-14T01:16:31.050Z,83.00
2018-07-14T01:21:34.247Z,83.00
2018-07-14T01:26:37.300Z,82.80
2018-07-14T01:31:40.506Z,82.90
2018-07-14T01:36:43.653Z,82.90
2018-07-14T01:41:46.726Z,83.00
2018-07-14T01:46:49.780Z,82.90
2018-07-14T01:51:52.829Z,83.10
2018-07-14T01:56:55.973Z,83.60
2018-07-14T02:01:59.078Z,83.60
2018-07-14T02:07:02.123Z,83.90
2018-07-14T02:12:05.185Z,84.30
2018-07-14T02:17:08.564Z,84.60
2018-07-14T02:22:11.625Z,84.50
2018-07-14T02:27:14.677Z,84.80
2018-07-14T02:32:17.745Z,85.40
2018-07-14T02:37:20.830Z,85.40
2018-07-14T02:42:23.887Z,85.40
2018-07-14T02:47:26.965Z,85.40
2018-07-14T02:52:30.039Z,85.70
2018-07-14T02:57:33.117Z,86.00
2018-07-14T03:02:36.166Z,85.90
2018-07-14T03:07:39.233Z,86.10
2018-07-14T03:12:42.291Z,86.10
2018-07-14T03:17:45.405Z,86.00
2018-07-14T03:22:48.468Z,85.80
2018-07-14T03:27:51.525Z,85.90
2018-07-14T03:32:54.601Z,86.10
2018-07-14T03:37:57.678Z,86.10
2018-07-14T03:43:00.730Z,86.00
2018-07-14T03:48:03.781Z,85.90
2018-07-14T03:53:06.889Z,86.00
2018-07-14T03:58:09.978Z,85.90
2018-07-14T04:03:13.049Z,85.80
2018-07-14T04:08:16.123Z,85.70
2018-07-14T04:13:19.157Z,85.70
2018-07-14T04:18:22.209Z,85.90
2018-07-14T04:23:25.261Z,85.90
2018-07-14T04:28:28.325Z,85.80
2018-07-14T04:33:31.393Z,85.90
2018-07-14T04:38:34.449Z,85.90
2018-07-14T04:43:37.565Z,85.90
2018-07-14T04:48:40.625Z,85.70
2018-07-14T04:53:43.700Z,85.50
2018-07-14T04:58:46.773Z,85.40
2018-07-14T05:03:49.828Z,85.20
2018-07-14T05:08:52.901Z,85.10
2018-07-14T05:13:55.965Z,84.50
2018-07-14T05:18:59.018Z,83.90
2018-07-14T05:24:02.096Z,82.90
2018-07-14T05:29:05.181Z,82.20
2018-07-14T05:34:08.259Z,82.60
2018-07-14T05:39:11.501Z,82.10
2018-07-14T05:44:14.586Z,81.60
2018-07-14T05:49:17.669Z,81.20
2018-07-14T05:54:20.737Z,80.90
2018-07-14T05:59:23.826Z,79.60
2018-07-14T06:04:26.909Z,78.30
2018-07-14T06:09:33.361Z,78.70
2018-07-14T06:14:36.421Z,78.50
2018-07-14T06:19:39.550Z,78.10
2018-07-14T06:24:42.611Z,78.30
2018-07-14T06:29:45.786Z,78.30
2018-07-14T06:34:48.867Z,78.20
2018-07-14T06:39:51.925Z,77.70
2018-07-14T06:44:54.994Z,77.30
2018-07-14T06:49:58.057Z,77.40
2018-07-14T06:55:01.129Z,75.90
2018-07-14T07:00:04.421Z,75.50
2018-07-14T07:05:07.563Z,75.10
2018-07-14T07:10:10.713Z,73.80
2018-07-14T07:15:13.785Z,73.90
2018-07-14T07:20:16.857Z,73.60
2018-07-14T07:25:19.925Z,73.00
2018-07-14T07:30:24.033Z,72.30
2018-07-14T07:35:27.071Z,72.50
2018-07-14T07:40:30.133Z,71.30
2018-07-14T07:45:33.190Z,71.10
2018-07-14T07:50:36.254Z,70.20
2018-07-14T07:55:39.314Z,69.70
2018-07-14T08:00:42.401Z,68.50
2018-07-14T08:05:45.456Z,68.00
2018-07-14T08:10:48.512Z,67.60
2018-07-14T08:15:51.576Z,67.40
2018-07-14T08:20:54.617Z,66.10
2018-07-14T08:25:57.698Z,66.00
2018-07-14T08:31:00.768Z,64.90
2018-07-14T08:36:03.814Z,64.40
2018-07-14T08:41:06.893Z,63.80
2018-07-14T08:46:09.936Z,64.20
2018-07-14T08:51:13.028Z,63.40
2018-07-14T08:56:16.037Z,62.80
2018-07-14T09:01:19.080Z,62.20
2018-07-14T09:06:22.145Z,62.10
2018-07-14T09:11:25.203Z,61.80
2018-07-14T09:16:28.330Z,62.60
2018-07-14T09:21:31.334Z,61.70
2018-07-14T09:26:34.395Z,61.30
2018-07-14T09:31:37.757Z,61.50
2018-07-14T09:36:40.827Z,62.00
2018-07-14T09:41:43.888Z,60.30
2018-07-14T09:46:46.953Z,59.50
2018-07-14T09:51:50.180Z,60.10
2018-07-14T09:56:53.241Z,60.00
2018-07-14T10:01:56.293Z,59.70
2018-07-14T10:06:59.357Z,59.10
2018-07-14T10:12:02.459Z,58.90
2018-07-14T10:17:05.524Z,59.10
2018-07-14T10:22:08.577Z,58.30
2018-07-14T10:27:11.633Z,58.40
2018-07-14T10:32:14.697Z,57.90
2018-07-14T10:37:17.830Z,57.90
2018-07-14T10:42:20.881Z,58.20
2018-07-14T10:47:23.944Z,58.00
2018-07-14T10:52:27.001Z,56.60
2018-07-14T10:57:30.098Z,56.90
2018-07-14T11:02:33.173Z,57.30
2018-07-14T11:07:36.253Z,56.50
2018-07-14T11:12:39.316Z,57.40
2018-07-14T11:17:42.439Z,56.30
2018-07-14T11:22:45.476Z,56.00
2018-07-14T11:27:48.536Z,55.80
2018-07-14T11:32:51.665Z,56.30
2018-07-14T11:37:54.730Z,55.50
2018-07-14T11:42:57.785Z,55.10
2018-07-14T11:48:00.873Z,55.60
2018-07-14T11:53:03.993Z,54.90
2018-07-14T11:58:07.085Z,55.10
2018-07-14T12:03:10.133Z,54.70
2018-07-14T12:08:13.989Z,54.60
2018-07-14T12:13:17.062Z,54.50
2018-07-14T12:18:20.145Z,53.90
2018-07-14T12:23:23.397Z,54.50
2018-07-14T12:28:26.533Z,53.70
2018-07-14T12:33:29.609Z,53.70
2018-07-14T12:38:32.686Z,53.90
2018-07-14T12:43:35.745Z,54.80
2018-07-14T12:48:38.820Z,54.40
2018-07-14T12:53:41.868Z,53.80
2018-07-14T12:58:44.929Z,54.10
2018-07-14T13:03:47.989Z,54.00
2018-07-14T13:08:51.037Z,53.20
2018-07-14T13:13:54.101Z,53.20
2018-07-14T13:18:57.145Z,52.70
2018-07-14T13:24:00.213Z,52.70
2018-07-14T13:29:03.260Z,53.70
2018-07-14T13:34:06.332Z,53.80
2018-07-14T13:39:09.478Z,53.10
2018-07-14T13:44:12.470Z,53.50
2018-07-14T13:49:15.532Z,52.50
2018-07-14T13:54:18.726Z,53.30
2018-07-14T13:59:21.749Z,54.60
2018-07-14T14:04:24.798Z,54.10
2018-07-14T14:09:27.922Z,53.80
2018-07-14T14:14:30.916Z,54.20
2018-07-14T14:19:33.996Z,54.70
2018-07-14T14:24:37.057Z,53.30
2018-07-14T14:29:40.417Z,54.40
2018-07-14T14:34:43.469Z,54.80
2018-07-14T14:39:46.580Z,54.20
2018-07-14T14:44:49.632Z,53.50
2018-07-14T14:49:52.708Z,53.10
2018-07-14T14:54:55.781Z,53.60
2018-07-14T14:59:58.861Z,52.60
2018-07-14T15:05:01.931Z,53.30
2018-07-14T15:10:05.012Z,53.30
2018-07-14T15:15:08.073Z,53.20
2018-07-14T15:20:11.235Z,53.00
2018-07-14T15:25:14.346Z,53.40
2018-07-14T15:30:17.481Z,53.40
2018-07-14T15:35:20.557Z,53.40
2018-07-14T15:40:23.639Z,53.00
2018-07-14T15:45:26.760Z,53.50
2018-07-14T15:50:29.858Z,52.30
2018-07-14T15:55:32.957Z,50.60
2018-07-14T16:00:36.070Z,50.80
2018-07-14T16:05:39.209Z,49.80
2018-07-14T16:10:42.332Z,49.70
2018-07-14T16:15:45.431Z,50.10
2018-07-14T16:20:48.541Z,49.50
2018-07-14T16:25:51.658Z,49.20
2018-07-14T16:30:54.789Z,49.10
2018-07-14T16:35:57.971Z,49.30
2018-07-14T16:41:01.056Z,47.90
2018-07-14T16:46:04.162Z,47.40
2018-07-14T16:51:07.518Z,48.00
2018-07-14T16:56:10.642Z,48.60
2018-07-14T17:01:13.789Z,48.10
2018-07-14T17:06:16.937Z,47.80
2018-07-14T17:11:20.049Z,47.20
2018-07-14T17:16:23.150Z,47.50
2018-07-14T17:21:26.286Z,47.30
2018-07-14T17:26:29.424Z,47.10
2018-07-14T17:31:32.559Z,46.90
2018-07-14T17:36:35.713Z,47.20
2018-07-14T17:41:38.890Z,47.70
2018-07-14T17:46:42.025Z,48.40
2018-07-14T17:51:45.243Z,48.90
2018-07-14T17:56:48.353Z,49.00
2018-07-14T18:01:51.520Z,49.20
2018-07-14T18:06:54.660Z,49.60
2018-07-14T18:11:57.802Z,49.20
2018-07-14T18:17:00.933Z,49.20
2018-07-14T18:22:04.038Z,49.90
2018-07-14T18:27:07.197Z,50.30
2018-07-14T18:32:10.348Z,50.00
2018-07-14T18:37:13.457Z,50.50
2018-07-14T18:42:16.596Z,50.70
2018-07-14T18:47:19.734Z,51.20
2018-07-14T18:52:22.908Z,51.40
2018-07-14T18:57:25.992Z,51.90
2018-07-14T19:02:29.130Z,52.20
2018-07-14T19:07:32.234Z,52.70
2018-07-14T19:12:35.380Z,53.50
2018-07-14T19:17:38.506Z,53.90
2018-07-14T19:22:41.632Z,54.00
2018-07-14T19:27:44.811Z,54.80
2018-07-14T19:32:47.915Z,55.40
2018-07-14T19:37:51.216Z,56.30
2018-07-14T19:42:54.460Z,56.20
2018-07-14T19:47:57.457Z,56.20
2018-07-14T19:53:00.592Z,56.50
2018-07-14T19:58:03.954Z,56.70
2018-07-14T20:03:07.235Z,57.00
2018-07-14T20:08:10.354Z,57.20
2018-07-14T20:13:13.467Z,57.30
2018-07-14T20:18:16.605Z,57.50
2018-07-14T20:23:19.749Z,57.90
2018-07-14T20:28:22.856Z,58.30
2018-07-14T20:33:26.008Z,58.40
2018-07-14T20:38:29.116Z,58.70
2018-07-14T20:43:32.225Z,59.10
2018-07-14T20:48:35.339Z,59.50
2018-07-14T20:53:38.514Z,59.70
2018-07-14T20:58:41.665Z,59.90
2018-07-14T21:03:44.773Z,60.30
2018-07-14T21:08:47.884Z,60.70
2018-07-14T21:13:50.996Z,61.50
2018-07-14T21:18:54.098Z,62.00
2018-07-14T21:23:57.197Z,62.20
2018-07-14T21:29:00.326Z,62.90
2018-07-14T21:34:03.429Z,63.80
2018-07-14T21:39:06.833Z,63.30
2018-07-14T21:44:09.976Z,63.20
2018-07-14T21:49:13.742Z,63.50
2018-07-14T21:54:16.898Z,64.20
2018-07-14T21:59:20.043Z,64.40
2018-07-14T22:04:23.188Z,64.70
2018-07-14T22:09:26.300Z,65.40
2018-07-14T22:14:29.409Z,65.80
2018-07-14T22:19:32.550Z,66.00
2018-07-14T22:24:35.682Z,66.10
2018-07-14T22:29:38.793Z,66.30
2018-07-14T22:34:41.903Z,66.40
2018-07-14T22:39:45.003Z,66.80
2018-07-14T22:44:48.145Z,67.50
2018-07-14T22:49:51.267Z,67.60
2018-07-14T22:54:54.392Z,67.60
2018-07-14T22:59:57.493Z,67.60
2018-07-14T23:05:00.600Z,67.80
2018-07-14T23:10:03.890Z,68.20
2018-07-14T23:15:07.008Z,68.50
2018-07-14T23:20:10.087Z,68.90
2018-07-14T23:25:13.216Z,69.30
2018-07-14T23:30:16.382Z,69.50
2018-07-14T23:35:19.507Z,69.60
2018-07-14T23:40:22.630Z,69.80
2018-07-14T23:45:25.751Z,70.40
2018-07-14T23:50:28.874Z,70.80
2018-07-14T23:55:31.978Z,71.20
